Airfield :
LOGIN :

Register | Disclaimer

   EN    FR    IT 

 










Legend :    VFR   Marginal VFR   IFR   Intensive IFR   Very Intensive IFR
Visi :
Ceiling :
>= 8 km
>= 3000ft
5 to 8 km
1000 to 3000 ft
1500m to 5 km
500 to 1000 ft
800 to 1500m
200 to 500 ft
< 800m
< 200 ft
Symbols :   Thunderstorms  Fog  Heavy snow  Heavy precipitations  Wind > 20 kt
SIGMETs :     Misc.  Thunderstorms  Icing  Turbulence  Mountain Waves  Volcanic Ashes






- Airport Elevation : 59 ft
- IATA code : TSF


LIPH - Treviso

CURRENT METAR :
  • 270150Z AUTO 28001KT 3700 BR VV008 01/00 Q1023

EXPIRED METARs :
  • 270120Z AUTO 00000KT 2600 0550E BR NCD 00/00 Q1023
  • 270050Z AUTO VRB01KT 1800 BR NCD 00/00 Q1023
  • 270020Z AUTO 34002KT 2500 BR NCD 01/00 Q1023
  • 262350Z AUTO 34002KT 2000 BR NCD 01/01 Q1023

TAF TAF LIPH
Valid from the 27 at 00:00 until the 28 at 00:00 UTC


262300Z 2700/2724 VRB05KT 3000 BR NSC
PROB40
TEMPO 2700/2707 0800 FG OVC002
BECMG 2708/2710 6000
BECMG 2720/2722 4000 BR



MET'MAP, your aeronautical weather chart ! - Copyright ORBIFLY December 2007 - Disclaimer

ORBIFLY MET'MAP TEAM :

Programming & Development : Alexandra Zaïnal
Concept & original design : Baudouin d'Aumeries
Assistance for programming : Marc-Olivier Méhu
Technical & hardware support : Manuel Goepfert

Contact : metmap@orbifly.com




SOURCES & CREDITS :

   NOAA